sensor_id;sensor_type;location;lat;lon;timestamp;pressure;altitude;pressure_sealevel;temperature;humidity
26192;BME280;13935;55.672;37.764;2023-08-07T00:00:53;100028.94;;;25.29;100.00
26192;BME280;13935;55.672;37.764;2023-08-07T00:01:55;100024.25;;;25.26;100.00
26192;BME280;13935;55.672;37.764;2023-08-07T00:02:57;100022.06;;;25.21;100.00
26192;BME280;13935;55.672;37.764;2023-08-07T00:03:59;100027.72;;;25.21;100.00
26192;BME280;13935;55.672;37.764;2023-08-07T00:05:02;100019.13;;;25.16;100.00
26192;BME280;13935;55.672;37.764;2023-08-07T00:06:04;100025.56;;;25.16;100.00
26192;BME280;13935;55.672;37.764;2023-08-07T00:07:06;100018.72;;;25.08;100.00
26192;BME280;13935;55.672;37.764;2023-08-07T00:08:09;100027.81;;;25.03;100.00
26192;BME280;13935;55.672;37.764;2023-08-07T00:09:11;100022.16;;;25.03;100.00
26192;BME280;13935;55.672;37.764;2023-08-07T00:10:13;100023.41;;;25.02;100.00
26192;BME280;13935;55.672;37.764;2023-08-07T00:11:16;100026.91;;;24.97;100.00
26192;BME280;13935;55.672;37.764;2023-08-07T00:12:18;100027.41;;;24.96;100.00
26192;BME280;13935;55.672;37.764;2023-08-07T00:13:20;100029.16;;;24.93;100.00
26192;BME280;13935;55.672;37.764;2023-08-07T00:14:22;100030.75;;;24.85;100.00
26192;BME280;13935;55.672;37.764;2023-08-07T00:15:25;100032.00;;;24.84;100.00
26192;BME280;13935;55.672;37.764;2023-08-07T00:16:27;100029.66;;;24.83;100.00
26192;BME280;13935;55.672;37.764;2023-08-07T00:17:29;100031.09;;;24.78;100.00
26192;BME280;13935;55.672;37.764;2023-08-07T00:18:31;100037.72;;;24.75;100.00
26192;BME280;13935;55.672;37.764;2023-08-07T00:19:34;100028.59;;;24.71;100.00
26192;BME280;13935;55.672;37.764;2023-08-07T00:20:36;100034.75;;;24.70;100.00
26192;BME280;13935;55.672;37.764;2023-08-07T00:21:38;100036.81;;;24.69;100.00
26192;BME280;13935;55.672;37.764;2023-08-07T00:22:40;100050.66;;;24.67;100.00
26192;BME280;13935;55.672;37.764;2023-08-07T00:23:42;100038.72;;;24.63;100.00
26192;BME280;13935;55.672;37.764;2023-08-07T00:24:44;100040.31;;;24.64;100.00
26192;BME280;13935;55.672;37.764;2023-08-07T00:25:46;100041.56;;;24.63;100.00
26192;BME280;13935;55.672;37.764;2023-08-07T00:26:48;100043.47;;;24.57;100.00
26192;BME280;13935;55.672;37.764;2023-08-07T00:27:50;100033.72;;;24.58;100.00
26192;BME280;13935;55.672;37.764;2023-08-07T00:28:52;100033.41;;;24.56;100.00
26192;BME280;13935;55.672;37.764;2023-08-07T00:29:55;100039.72;;;24.51;100.00
26192;BME280;13935;55.672;37.764;2023-08-07T00:30:57;100040.97;;;24.50;100.00
26192;BME280;13935;55.672;37.764;2023-08-07T00:31:59;100033.31;;;24.42;100.00
26192;BME280;13935;55.672;37.764;2023-08-07T00:33:01;100030.31;;;24.46;100.00
26192;BME280;13935;55.672;37.764;2023-08-07T00:34:04;100037.50;;;24.47;100.00
26192;BME280;13935;55.672;37.764;2023-08-07T00:35:07;100035.78;;;24.40;100.00
26192;BME280;13935;55.672;37.764;2023-08-07T00:36:09;100028.91;;;24.41;100.00
26192;BME280;13935;55.672;37.764;2023-08-07T00:37:12;100035.00;;;24.40;100.00
26192;BME280;13935;55.672;37.764;2023-08-07T00:38:14;100029.97;;;24.35;100.00
26192;BME280;13935;55.672;37.764;2023-08-07T00:39:18;100036.91;;;24.34;100.00
26192;BME280;13935;55.672;37.764;2023-08-07T00:40:20;100027.13;;;24.35;100.00
26192;BME280;13935;55.672;37.764;2023-08-07T00:41:22;100024.03;;;24.33;100.00
26192;BME280;13935;55.672;37.764;2023-08-07T00:42:26;100029.53;;;24.36;100.00
26192;BME280;13935;55.672;37.764;2023-08-07T00:43:28;100031.72;;;24.32;100.00
26192;BME280;13935;55.672;37.764;2023-08-07T00:44:32;100027.63;;;24.33;100.00
26192;BME280;13935;55.672;37.764;2023-08-07T00:45:39;100030.63;;;24.30;100.00
26192;BME280;13935;55.672;37.764;2023-08-07T00:46:43;100031.41;;;24.30;100.00
26192;BME280;13935;55.672;37.764;2023-08-07T00:47:45;100029.84;;;24.29;100.00
26192;BME280;13935;55.672;37.764;2023-08-07T00:48:48;100028.91;;;24.23;100.00
26192;BME280;13935;55.672;37.764;2023-08-07T00:49:50;100033.78;;;24.23;100.00
26192;BME280;13935;55.672;37.764;2023-08-07T00:50:53;100020.59;;;24.20;100.00
26192;BME280;13935;55.672;37.764;2023-08-07T00:51:55;100027.03;;;24.20;100.00
26192;BME280;13935;55.672;37.764;2023-08-07T00:52:57;100031.91;;;24.20;100.00
26192;BME280;13935;55.672;37.764;2023-08-07T00:54:01;100027.19;;;24.17;100.00
26192;BME280;13935;55.672;37.764;2023-08-07T00:55:06;100021.53;;;24.17;100.00
26192;BME280;13935;55.672;37.764;2023-08-07T00:56:09;100021.69;;;24.13;100.00
26192;BME280;13935;55.672;37.764;2023-08-07T00:57:13;100029.72;;;24.15;100.00
26192;BME280;13935;55.672;37.764;2023-08-07T00:58:19;100029.91;;;24.11;100.00
26192;BME280;13935;55.672;37.764;2023-08-07T00:59:21;100020.31;;;24.09;100.00
26192;BME280;13935;55.672;37.764;2023-08-07T01:00:23;100022.34;;;24.08;100.00
26192;BME280;13935;55.672;37.764;2023-08-07T01:01:25;100025.00;;;24.12;100.00
26192;BME280;13935;55.672;37.764;2023-08-07T01:02:28;100030.06;;;24.08;100.00
26192;BME280;13935;55.672;37.764;2023-08-07T01:03:30;100020.31;;;24.09;100.00
26192;BME280;13935;55.672;37.764;2023-08-07T01:04:32;100020.78;;;24.07;100.00
26192;BME280;13935;55.672;37.764;2023-08-07T01:05:34;100024.41;;;24.08;100.00
26192;BME280;13935;55.672;37.764;2023-08-07T01:06:36;100025.34;;;24.05;100.00
26192;BME280;13935;55.672;37.764;2023-08-07T01:07:39;100015.28;;;24.04;100.00
26192;BME280;13935;55.672;37.764;2023-08-07T01:08:41;100014.03;;;24.05;100.00
26192;BME280;13935;55.672;37.764;2023-08-07T01:09:44;100007.28;;;24.02;100.00
26192;BME280;13935;55.672;37.764;2023-08-07T01:11:10;100007.09;;;24.06;100.00
26192;BME280;13935;55.672;37.764;2023-08-07T01:12:21;100010.91;;;24.03;100.00
26192;BME280;13935;55.672;37.764;2023-08-07T01:13:32;100006.50;;;24.02;100.00
26192;BME280;13935;55.672;37.764;2023-08-07T01:15:46;100002.88;;;24.01;100.00
26192;BME280;13935;55.672;37.764;2023-08-07T01:17:10;100010.25;;;23.99;100.00
26192;BME280;13935;55.672;37.764;2023-08-07T01:18:13;99997.69;;;24.00;100.00
26192;BME280;13935;55.672;37.764;2023-08-07T01:20:43;100013.09;;;23.99;100.00
26192;BME280;13935;55.672;37.764;2023-08-07T01:21:48;100007.31;;;23.93;100.00
26192;BME280;13935;55.672;37.764;2023-08-07T01:22:50;99995.19;;;23.93;100.00
26192;BME280;13935;55.672;37.764;2023-08-07T01:23:53;100012.16;;;23.93;100.00
26192;BME280;13935;55.672;37.764;2023-08-07T01:24:55;100002.25;;;23.88;100.00
26192;BME280;13935;55.672;37.764;2023-08-07T01:25:57;100003.34;;;23.91;100.00
26192;BME280;13935;55.672;37.764;2023-08-07T01:27:37;99997.84;;;23.87;100.00
26192;BME280;13935;55.672;37.764;2023-08-07T01:28:51;99997.69;;;23.91;100.00
26192;BME280;13935;55.672;37.764;2023-08-07T01:31:22;100004.31;;;23.88;100.00
26192;BME280;13935;55.672;37.764;2023-08-07T01:32:40;99999.44;;;23.88;100.00
26192;BME280;13935;55.672;37.764;2023-08-07T01:34:02;100002.13;;;23.83;100.00
26192;BME280;13935;55.672;37.764;2023-08-07T01:35:06;99999.75;;;23.81;100.00
26192;BME280;13935;55.672;37.764;2023-08-07T01:36:10;100004.31;;;23.79;100.00
26192;BME280;13935;55.672;37.764;2023-08-07T01:37:13;99998.81;;;23.75;100.00
26192;BME280;13935;55.672;37.764;2023-08-07T01:38:16;100000.72;;;23.78;100.00
26192;BME280;13935;55.672;37.764;2023-08-07T01:39:19;99996.78;;;23.76;100.00
26192;BME280;13935;55.672;37.764;2023-08-07T01:40:23;99995.06;;;23.78;100.00
26192;BME280;13935;55.672;37.764;2023-08-07T01:41:27;99992.06;;;23.73;100.00
26192;BME280;13935;55.672;37.764;2023-08-07T01:42:30;99997.41;;;23.80;100.00
26192;BME280;13935;55.672;37.764;2023-08-07T01:43:34;99999.94;;;23.78;100.00
26192;BME280;13935;55.672;37.764;2023-08-07T01:44:38;99991.16;;;23.76;100.00
26192;BME280;13935;55.672;37.764;2023-08-07T01:45:40;99992.41;;;23.75;100.00
26192;BME280;13935;55.672;37.764;2023-08-07T01:46:43;100003.38;;;23.73;100.00
26192;BME280;13935;55.672;37.764;2023-08-07T01:47:45;99991.31;;;23.73;100.00
26192;BME280;13935;55.672;37.764;2023-08-07T01:48:47;99998.34;;;23.68;100.00
26192;BME280;13935;55.672;37.764;2023-08-07T01:49:50;99991.44;;;23.69;100.00
26192;BME280;13935;55.672;37.764;2023-08-07T01:50:53;99999.59;;;23.67;100.00
26192;BME280;13935;55.672;37.764;2023-08-07T01:51:55;99996.75;;;23.67;100.00
26192;BME280;13935;55.672;37.764;2023-08-07T01:52:57;100006.19;;;23.64;100.00
26192;BME280;13935;55.672;37.764;2023-08-07T01:53:59;99996.00;;;23.67;100.00
26192;BME280;13935;55.672;37.764;2023-08-07T01:55:02;100003.22;;;23.68;100.00
26192;BME280;13935;55.672;37.764;2023-08-07T01:56:06;99998.00;;;23.66;100.00
26192;BME280;13935;55.672;37.764;2023-08-07T01:57:08;99998.97;;;23.63;100.00
26192;BME280;13935;55.672;37.764;2023-08-07T01:58:13;100000.53;;;23.64;100.00
26192;BME280;13935;55.672;37.764;2023-08-07T01:59:15;99993.31;;;23.63;100.00
26192;BME280;13935;55.672;37.764;2023-08-07T02:00:19;99999.28;;;23.65;100.00
26192;BME280;13935;55.672;37.764;2023-08-07T02:01:21;100002.13;;;23.65;100.00
26192;BME280;13935;55.672;37.764;2023-08-07T02:02:23;99997.41;;;23.62;100.00
26192;BME280;13935;55.672;37.764;2023-08-07T02:03:25;99993.47;;;23.60;100.00
26192;BME280;13935;55.672;37.764;2023-08-07T02:04:27;99992.69;;;23.59;100.00
26192;BME280;13935;55.672;37.764;2023-08-07T02:05:34;99999.59;;;23.58;100.00
26192;BME280;13935;55.672;37.764;2023-08-07T02:06:36;99999.59;;;23.58;100.00
26192;BME280;13935;55.672;37.764;2023-08-07T02:07:38;99988.59;;;23.60;100.00
26192;BME280;13935;55.672;37.764;2023-08-07T02:08:40;99987.06;;;23.59;100.00
26192;BME280;13935;55.672;37.764;2023-08-07T02:09:42;99991.41;;;23.60;100.00
26192;BME280;13935;55.672;37.764;2023-08-07T02:10:44;100008.09;;;23.58;100.00
26192;BME280;13935;55.672;37.764;2023-08-07T02:11:46;100010.75;;;23.53;100.00
26192;BME280;13935;55.672;37.764;2023-08-07T02:12:48;99997.72;;;23.55;100.00
26192;BME280;13935;55.672;37.764;2023-08-07T02:13:50;99994.88;;;23.55;100.00
26192;BME280;13935;55.672;37.764;2023-08-07T02:14:53;99993.63;;;23.56;100.00
26192;BME280;13935;55.672;37.764;2023-08-07T02:15:55;99996.63;;;23.62;100.00
26192;BME280;13935;55.672;37.764;2023-08-07T02:16:57;100004.00;;;23.59;100.00
26192;BME280;13935;55.672;37.764;2023-08-07T02:17:59;99998.97;;;23.63;100.00
26192;BME280;13935;55.672;37.764;2023-08-07T02:19:01;100002.13;;;23.65;100.00
26192;BME280;13935;55.672;37.764;2023-08-07T02:20:24;100007.78;;;23.65;100.00
26192;BME280;13935;55.672;37.764;2023-08-07T02:21:26;100001.78;;;23.63;100.00
26192;BME280;13935;55.672;37.764;2023-08-07T02:22:28;100000.06;;;23.66;100.00
26192;BME280;13935;55.672;37.764;2023-08-07T02:23:30;100006.50;;;23.66;100.00
26192;BME280;13935;55.672;37.764;2023-08-07T02:24:36;100012.47;;;23.68;100.00
26192;BME280;13935;55.672;37.764;2023-08-07T02:25:38;99995.50;;;23.68;100.00
26192;BME280;13935;55.672;37.764;2023-08-07T02:26:39;99999.78;;;23.73;100.00
26192;BME280;13935;55.672;37.764;2023-08-07T02:27:41;100004.97;;;23.74;100.00
26192;BME280;13935;55.672;37.764;2023-08-07T02:28:43;100000.88;;;23.75;100.00
26192;BME280;13935;55.672;37.764;2023-08-07T02:29:45;99994.91;;;23.73;100.00
26192;BME280;13935;55.672;37.764;2023-08-07T02:30:48;99998.38;;;23.77;100.00
26192;BME280;13935;55.672;37.764;2023-08-07T02:31:55;99992.63;;;24.13;100.00
26192;BME280;13935;55.672;37.764;2023-08-07T02:32:57;99988.63;;;24.78;100.00
26192;BME280;13935;55.672;37.764;2023-08-07T02:34:02;99988.00;;;25.30;100.00
26192;BME280;13935;55.672;37.764;2023-08-07T02:35:05;99997.78;;;25.67;100.00
26192;BME280;13935;55.672;37.764;2023-08-07T02:36:07;99994.53;;;26.11;100.00
26192;BME280;13935;55.672;37.764;2023-08-07T02:37:09;99996.69;;;26.31;100.00
26192;BME280;13935;55.672;37.764;2023-08-07T02:38:11;99989.84;;;26.52;100.00
26192;BME280;13935;55.672;37.764;2023-08-07T02:39:14;99986.31;;;26.91;100.00
26192;BME280;13935;55.672;37.764;2023-08-07T02:40:18;99993.22;;;27.19;100.00
26192;BME280;13935;55.672;37.764;2023-08-07T02:41:20;99982.53;;;27.34;100.00
26192;BME280;13935;55.672;37.764;2023-08-07T02:42:23;99987.28;;;27.42;100.00
26192;BME280;13935;55.672;37.764;2023-08-07T02:43:25;99987.09;;;27.65;100.00
26192;BME280;13935;55.672;37.764;2023-08-07T02:44:28;99995.03;;;28.07;100.00
26192;BME280;13935;55.672;37.764;2023-08-07T02:45:35;99994.91;;;28.46;100.00
26192;BME280;13935;55.672;37.764;2023-08-07T02:46:37;99992.13;;;28.52;100.00
26192;BME280;13935;55.672;37.764;2023-08-07T02:47:39;99992.00;;;28.72;100.00
26192;BME280;13935;55.672;37.764;2023-08-07T02:48:43;99993.41;;;28.82;100.00
26192;BME280;13935;55.672;37.764;2023-08-07T02:49:46;99990.28;;;28.80;100.00
26192;BME280;13935;55.672;37.764;2023-08-07T02:50:48;99986.31;;;28.72;100.00
26192;BME280;13935;55.672;37.764;2023-08-07T02:51:53;99990.38;;;28.91;100.00
26192;BME280;13935;55.672;37.764;2023-08-07T02:52:54;99986.00;;;29.00;100.00
26192;BME280;13935;55.672;37.764;2023-08-07T02:53:56;99991.09;;;29.27;99.15
26192;BME280;13935;55.672;37.764;2023-08-07T02:54:58;99991.47;;;29.51;96.78
26192;BME280;13935;55.672;37.764;2023-08-07T02:56:00;99995.84;;;29.41;95.93
26192;BME280;13935;55.672;37.764;2023-08-07T02:57:02;99997.28;;;29.78;94.45
26192;BME280;13935;55.672;37.764;2023-08-07T02:58:05;99995.00;;;29.99;92.69
26192;BME280;13935;55.672;37.764;2023-08-07T02:59:07;100001.28;;;30.36;89.56
26192;BME280;13935;55.672;37.764;2023-08-07T03:00:09;99999.94;;;29.93;91.76
26192;BME280;13935;55.672;37.764;2023-08-07T03:01:12;99997.16;;;30.26;88.92
26192;BME280;13935;55.672;37.764;2023-08-07T03:02:15;100000.00;;;30.37;87.60
26192;BME280;13935;55.672;37.764;2023-08-07T03:03:17;100000.28;;;30.38;86.14
26192;BME280;13935;55.672;37.764;2023-08-07T03:04:19;99996.41;;;30.52;84.49
26192;BME280;13935;55.672;37.764;2023-08-07T03:05:21;99996.63;;;30.98;82.93
26192;BME280;13935;55.672;37.764;2023-08-07T03:06:23;100002.91;;;30.58;82.12
26192;BME280;13935;55.672;37.764;2023-08-07T03:07:25;100001.31;;;30.79;82.13
26192;BME280;13935;55.672;37.764;2023-08-07T03:08:27;100002.09;;;31.13;79.88
26192;BME280;13935;55.672;37.764;2023-08-07T03:09:29;100009.88;;;31.17;78.32
26192;BME280;13935;55.672;37.764;2023-08-07T03:10:31;100002.31;;;31.20;78.08
26192;BME280;13935;55.672;37.764;2023-08-07T03:11:33;100000.50;;;31.85;74.59
26192;BME280;13935;55.672;37.764;2023-08-07T03:12:35;99992.69;;;32.31;71.42
26192;BME280;13935;55.672;37.764;2023-08-07T03:13:40;99995.97;;;32.05;71.05
26192;BME280;13935;55.672;37.764;2023-08-07T03:14:43;100003.00;;;32.04;70.76
26192;BME280;13935;55.672;37.764;2023-08-07T03:15:45;100002.88;;;31.75;71.33
26192;BME280;13935;55.672;37.764;2023-08-07T03:16:48;100000.03;;;30.86;76.82
26192;BME280;13935;55.672;37.764;2023-08-07T03:17:50;100006.72;;;30.12;84.37
26192;BME280;13935;55.672;37.764;2023-08-07T03:18:52;99983.50;;;29.13;90.70
26192;BME280;13935;55.672;37.764;2023-08-07T03:19:54;99995.31;;;28.65;97.20
26192;BME280;13935;55.672;37.764;2023-08-07T03:20:57;99993.69;;;28.53;99.71
26192;BME280;13935;55.672;37.764;2023-08-07T03:21:59;99988.00;;;28.02;100.00
26192;BME280;13935;55.672;37.764;2023-08-07T03:23:01;99990.25;;;28.18;100.00
26192;BME280;13935;55.672;37.764;2023-08-07T03:24:03;99985.91;;;27.72;100.00
26192;BME280;13935;55.672;37.764;2023-08-07T03:25:05;99988.94;;;27.48;100.00
26192;BME280;13935;55.672;37.764;2023-08-07T03:26:10;99993.78;;;27.23;100.00
26192;BME280;13935;55.672;37.764;2023-08-07T03:27:21;100001.97;;;27.01;100.00
26192;BME280;13935;55.672;37.764;2023-08-07T03:28:24;99981.69;;;26.93;100.00
26192;BME280;13935;55.672;37.764;2023-08-07T03:29:26;99992.50;;;26.55;100.00
26192;BME280;13935;55.672;37.764;2023-08-07T03:30:28;99986.50;;;26.53;100.00
26192;BME280;13935;55.672;37.764;2023-08-07T03:31:31;99985.06;;;26.43;100.00
26192;BME280;13935;55.672;37.764;2023-08-07T03:32:33;99991.81;;;26.31;100.00
26192;BME280;13935;55.672;37.764;2023-08-07T03:33:35;99992.72;;;26.37;100.00
26192;BME280;13935;55.672;37.764;2023-08-07T03:34:37;99983.97;;;26.26;100.00
26192;BME280;13935;55.672;37.764;2023-08-07T03:35:40;99984.75;;;26.27;100.00
26192;BME280;13935;55.672;37.764;2023-08-07T03:36:44;99984.38;;;26.19;100.00
26192;BME280;13935;55.672;37.764;2023-08-07T03:37:46;99987.31;;;25.96;100.00
26192;BME280;13935;55.672;37.764;2023-08-07T03:38:48;99990.34;;;25.93;100.00
26192;BME280;13935;55.672;37.764;2023-08-07T03:39:52;99985.84;;;26.00;100.00
26192;BME280;13935;55.672;37.764;2023-08-07T03:40:54;99991.09;;;25.93;100.00
26192;BME280;13935;55.672;37.764;2023-08-07T03:41:56;99991.59;;;25.92;100.00
26192;BME280;13935;55.672;37.764;2023-08-07T03:42:59;99985.34;;;25.88;100.00
26192;BME280;13935;55.672;37.764;2023-08-07T03:44:01;99985.94;;;25.92;100.00
26192;BME280;13935;55.672;37.764;2023-08-07T03:45:04;99975.56;;;25.89;100.00
26192;BME280;13935;55.672;37.764;2023-08-07T03:46:06;99991.78;;;25.74;100.00
26192;BME280;13935;55.672;37.764;2023-08-07T03:47:07;99986.31;;;25.85;100.00
26192;BME280;13935;55.672;37.764;2023-08-07T03:48:10;99978.69;;;25.91;100.00
26192;BME280;13935;55.672;37.764;2023-08-07T03:49:12;99993.06;;;25.87;100.00
26192;BME280;13935;55.672;37.764;2023-08-07T03:50:14;99985.72;;;25.81;100.00
26192;BME280;13935;55.672;37.764;2023-08-07T03:51:16;99978.66;;;25.76;100.00
26192;BME280;13935;55.672;37.764;2023-08-07T03:52:22;99977.91;;;25.76;100.00
26192;BME280;13935;55.672;37.764;2023-08-07T03:53:24;99978.81;;;25.73;100.00
26192;BME280;13935;55.672;37.764;2023-08-07T03:54:26;99983.47;;;25.85;100.00
26192;BME280;13935;55.672;37.764;2023-08-07T03:55:28;99979.31;;;25.71;100.00
26192;BME280;13935;55.672;37.764;2023-08-07T03:56:30;99986.31;;;25.85;100.00
26192;BME280;13935;55.672;37.764;2023-08-07T03:57:38;99980.63;;;25.85;100.00
26192;BME280;13935;55.672;37.764;2023-08-07T03:58:41;99989.81;;;25.80;100.00
26192;BME280;13935;55.672;37.764;2023-08-07T03:59:43;99984.16;;;25.94;100.00
26192;BME280;13935;55.672;37.764;2023-08-07T04:00:50;99988.78;;;26.49;100.00
26192;BME280;13935;55.672;37.764;2023-08-07T04:01:53;99988.84;;;27.83;100.00
26192;BME280;13935;55.672;37.764;2023-08-07T04:02:55;99987.13;;;28.16;100.00
26192;BME280;13935;55.672;37.764;2023-08-07T04:03:58;99985.94;;;28.90;99.82
26192;BME280;13935;55.672;37.764;2023-08-07T04:05:00;99990.00;;;29.77;95.96
26192;BME280;13935;55.672;37.764;2023-08-07T04:06:04;99987.56;;;30.45;87.26
26192;BME280;13935;55.672;37.764;2023-08-07T04:07:07;99984.72;;;30.50;84.35
26192;BME280;13935;55.672;37.764;2023-08-07T04:08:09;99976.41;;;30.63;82.57
26192;BME280;13935;55.672;37.764;2023-08-07T04:09:12;99987.03;;;30.90;81.60
26192;BME280;13935;55.672;37.764;2023-08-07T04:10:14;99987.59;;;31.62;76.15
26192;BME280;13935;55.672;37.764;2023-08-07T04:11:16;99982.19;;;31.98;74.04
26192;BME280;13935;55.672;37.764;2023-08-07T04:12:18;99982.88;;;31.70;74.27
26192;BME280;13935;55.672;37.764;2023-08-07T04:13:20;99982.66;;;32.13;70.40
26192;BME280;13935;55.672;37.764;2023-08-07T04:14:22;99990.06;;;32.33;69.01
26192;BME280;13935;55.672;37.764;2023-08-07T04:15:24;99977.41;;;32.52;67.49
26192;BME280;13935;55.672;37.764;2023-08-07T04:16:29;99986.56;;;32.45;66.43
26192;BME280;13935;55.672;37.764;2023-08-07T04:17:31;99986.66;;;32.93;63.83
26192;BME280;13935;55.672;37.764;2023-08-07T04:18:33;99987.38;;;32.75;63.86
26192;BME280;13935;55.672;37.764;2023-08-07T04:19:36;99985.56;;;32.72;64.62
26192;BME280;13935;55.672;37.764;2023-08-07T04:20:39;99996.09;;;33.17;62.16
26192;BME280;13935;55.672;37.764;2023-08-07T04:21:41;99992.19;;;33.15;62.60
26192;BME280;13935;55.672;37.764;2023-08-07T04:22:43;99991.59;;;33.22;62.46
26192;BME280;13935;55.672;37.764;2023-08-07T04:23:46;99988.91;;;33.71;59.59
26192;BME280;13935;55.672;37.764;2023-08-07T04:24:48;99990.94;;;33.95;58.03
26192;BME280;13935;55.672;37.764;2023-08-07T04:25:51;99985.34;;;33.65;57.80
26192;BME280;13935;55.672;37.764;2023-08-07T04:26:53;99992.28;;;34.12;56.36
26192;BME280;13935;55.672;37.764;2023-08-07T04:27:56;99993.72;;;34.37;54.64
26192;BME280;13935;55.672;37.764;2023-08-07T04:28:57;100002.91;;;34.17;55.82
26192;BME280;13935;55.672;37.764;2023-08-07T04:29:59;99993.72;;;34.37;55.07
26192;BME280;13935;55.672;37.764;2023-08-07T04:31:01;99988.84;;;34.63;53.09
26192;BME280;13935;55.672;37.764;2023-08-07T04:32:04;99999.59;;;35.07;51.06
26192;BME280;13935;55.672;37.764;2023-08-07T04:33:07;99991.75;;;36.18;48.23
26192;BME280;13935;55.672;37.764;2023-08-07T04:34:09;99994.94;;;35.43;48.57
26192;BME280;13935;55.672;37.764;2023-08-07T04:35:16;99993.97;;;35.27;48.70
26192;BME280;13935;55.672;37.764;2023-08-07T04:36:17;99995.03;;;35.89;48.16
26192;BME280;13935;55.672;37.764;2023-08-07T04:37:19;100002.25;;;35.82;46.60
26192;BME280;13935;55.672;37.764;2023-08-07T04:38:21;99999.69;;;36.05;46.19
26192;BME280;13935;55.672;37.764;2023-08-07T04:39:24;99996.88;;;35.53;46.85
26192;BME280;13935;55.672;37.764;2023-08-07T04:40:26;99997.81;;;36.28;44.86
26192;BME280;13935;55.672;37.764;2023-08-07T04:41:31;99992.66;;;36.87;42.98
26192;BME280;13935;55.672;37.764;2023-08-07T04:42:33;99998.84;;;35.58;46.39
26192;BME280;13935;55.672;37.764;2023-08-07T04:43:36;99997.53;;;36.92;43.82
26192;BME280;13935;55.672;37.764;2023-08-07T04:44:37;100000.94;;;36.30;44.28
26192;BME280;13935;55.672;37.764;2023-08-07T04:45:40;99992.50;;;36.19;44.44
26192;BME280;13935;55.672;37.764;2023-08-07T04:46:42;100001.72;;;35.71;45.13
26192;BME280;13935;55.672;37.764;2023-08-07T04:47:44;99985.94;;;36.31;43.62
26192;BME280;13935;55.672;37.764;2023-08-07T04:48:46;99993.03;;;36.30;43.82
26192;BME280;13935;55.672;37.764;2023-08-07T04:49:49;99994.63;;;36.51;43.56
26192;BME280;13935;55.672;37.764;2023-08-07T04:50:52;99997.47;;;37.05;41.70
26192;BME280;13935;55.672;37.764;2023-08-07T04:51:55;99995.06;;;36.96;41.29
26192;BME280;13935;55.672;37.764;2023-08-07T04:52:57;99991.56;;;37.74;40.91
26192;BME280;13935;55.672;37.764;2023-08-07T04:53:58;99998.25;;;36.85;41.89
26192;BME280;13935;55.672;37.764;2023-08-07T04:55:00;99990.91;;;35.97;43.15
26192;BME280;13935;55.672;37.764;2023-08-07T04:56:03;99998.47;;;37.15;41.81
26192;BME280;13935;55.672;37.764;2023-08-07T04:57:05;99989.44;;;37.74;40.05
26192;BME280;13935;55.672;37.764;2023-08-07T04:58:07;99990.81;;;37.45;39.43
26192;BME280;13935;55.672;37.764;2023-08-07T04:59:09;99986.19;;;38.20;38.72
26192;BME280;13935;55.672;37.764;2023-08-07T05:00:12;99995.09;;;37.52;39.28
26192;BME280;13935;55.672;37.764;2023-08-07T05:01:15;99985.50;;;37.09;39.90
26192;BME280;13935;55.672;37.764;2023-08-07T05:02:17;99983.13;;;37.48;39.33
26192;BME280;13935;55.672;37.764;2023-08-07T05:03:20;99981.19;;;36.95;41.08
26192;BME280;13935;55.672;37.764;2023-08-07T05:04:22;99976.16;;;37.43;39.84
26192;BME280;13935;55.672;37.764;2023-08-07T05:05:24;99976.94;;;38.29;38.21
26192;BME280;13935;55.672;37.764;2023-08-07T05:06:26;99981.09;;;38.13;39.07
26192;BME280;13935;55.672;37.764;2023-08-07T05:07:28;99986.78;;;37.76;39.36
26192;BME280;13935;55.672;37.764;2023-08-07T05:08:31;99978.56;;;37.60;39.78
26192;BME280;13935;55.672;37.764;2023-08-07T05:09:34;99977.34;;;37.48;39.35
26192;BME280;13935;55.672;37.764;2023-08-07T05:10:36;99978.00;;;38.11;38.36
26192;BME280;13935;55.672;37.764;2023-08-07T05:11:38;99964.84;;;36.77;40.86
26192;BME280;13935;55.672;37.764;2023-08-07T05:12:40;99976.56;;;38.40;37.53
26192;BME280;13935;55.672;37.764;2023-08-07T05:13:42;99975.47;;;37.58;39.19
26192;BME280;13935;55.672;37.764;2023-08-07T05:14:44;99967.47;;;37.15;39.44
26192;BME280;13935;55.672;37.764;2023-08-07T05:15:47;99982.34;;;36.18;41.14
26192;BME280;13935;55.672;37.764;2023-08-07T05:16:50;99973.00;;;36.25;41.63
26192;BME280;13935;55.672;37.764;2023-08-07T05:17:52;99974.44;;;35.46;43.81
26192;BME280;13935;55.672;37.764;2023-08-07T05:18:54;99967.44;;;35.93;43.33
26192;BME280;13935;55.672;37.764;2023-08-07T05:19:56;99971.91;;;35.17;45.25
26192;BME280;13935;55.672;37.764;2023-08-07T05:21:04;99965.81;;;35.20;44.85
26192;BME280;13935;55.672;37.764;2023-08-07T05:22:08;99977.81;;;36.63;42.33
26192;BME280;13935;55.672;37.764;2023-08-07T05:23:10;99972.81;;;36.43;41.96
26192;BME280;13935;55.672;37.764;2023-08-07T05:24:13;99983.78;;;36.44;41.57
26192;BME280;13935;55.672;37.764;2023-08-07T05:25:16;99973.09;;;36.73;41.39
26192;BME280;13935;55.672;37.764;2023-08-07T05:26:19;99977.19;;;35.90;42.46
26192;BME280;13935;55.672;37.764;2023-08-07T05:27:21;99971.69;;;36.66;42.18
26192;BME280;13935;55.672;37.764;2023-08-07T05:28:23;99975.13;;;36.44;41.37
26192;BME280;13935;55.672;37.764;2023-08-07T05:29:25;99971.72;;;36.33;42.59
26192;BME280;13935;55.672;37.764;2023-08-07T05:30:27;99978.50;;;36.02;41.23